Time;durP1;ratioP1;P1;durP2;ratioP2;P2;SDS_P1;SDS_P2;PMS_P1;PMS_P2;Temp;Humidity;BMP_temperature;BMP_pressure;BME280_temperature;BME280_humidity;BME280_pressure;Samples;Min_cycle;Max_cycle;Signal;HPM_P1;HPM_P2
2021/12/21 00:01:31;;;;;;;45.35;16.88;;;;;;;-2.69;99.21;102715.78;4994678;28;20058;-57
2021/12/21 00:03:57;;;;;;;50.17;18.83;;;;;;;-2.68;99.20;102710.00;4995148;28;20130;-57
2021/12/21 00:06:22;;;;;;;36.50;13.88;;;;;;;-2.71;98.61;102714.72;4995586;28;20110;-56
2021/12/21 00:08:47;;;;;;;43.80;16.13;;;;;;;-2.73;98.27;102713.63;4994504;28;20359;-57
2021/12/21 00:11:14;;;;;;;41.75;15.95;;;;;;;-2.75;98.59;102710.06;4995483;28;20058;-56
2021/12/21 00:13:55;;;;;;;40.05;16.73;;;;;;;-2.81;98.35;102707.72;4995336;28;20022;-56
2021/12/21 00:16:44;;;;;;;47.55;15.50;;;;;;;-2.81;98.54;102712.78;4993837;28;20026;-56
2021/12/21 00:22:00;;;;;;;43.38;16.10;;;;;;;-2.83;98.80;102703.22;4994298;28;20548;-56
2021/12/21 00:24:31;;;;;;;43.80;16.40;;;;;;;-2.84;98.89;102697.28;4995201;28;20533;-56
2021/12/21 00:26:57;;;;;;;42.53;16.55;;;;;;;-2.83;99.32;102698.19;4994828;28;20462;-57
2021/12/21 00:29:23;;;;;;;45.78;17.52;;;;;;;-2.85;99.05;102695.50;4994399;28;20022;-56
2021/12/21 00:31:49;;;;;;;43.85;16.90;;;;;;;-2.86;98.90;102698.72;4994861;28;20022;-57
2021/12/21 00:34:14;;;;;;;50.78;17.35;;;;;;;-2.86;99.49;102697.84;4994954;28;20034;-56
2021/12/21 00:36:39;;;;;;;35.45;15.60;;;;;;;-2.87;99.41;102691.00;4993993;28;20023;-56
2021/12/21 00:39:07;;;;;;;34.88;16.02;;;;;;;-2.88;99.47;102681.63;4995005;28;20038;-57
2021/12/21 00:41:33;;;;;;;;;;;;;;;-2.86;98.79;102685.22;4995426;28;20084;-57
2021/12/21 00:43:59;;;;;;;42.67;16.63;;;;;;;-2.91;99.26;102681.28;4993872;28;19969;-57
2021/12/21 00:46:24;;;;;;;51.75;25.27;;;;;;;-3.06;99.23;102682.94;4994851;28;20054;-56
2021/12/21 00:48:53;;;;;;;39.38;15.73;;;;;;;-2.99;99.19;102685.47;4994444;28;20450;-56
2021/12/21 00:51:25;;;;;;;42.03;16.17;;;;;;;-3.02;98.32;102685.09;4993830;28;20022;-56
2021/12/21 00:53:51;;;;;;;41.80;16.40;;;;;;;-3.05;98.83;102683.13;4994593;28;20039;-56
2021/12/21 00:56:16;;;;;;;40.45;16.52;;;;;;;-3.07;98.83;102687.13;4993901;28;20038;-56
2021/12/21 00:58:41;;;;;;;39.80;16.63;;;;;;;-3.09;98.37;102691.06;4994166;28;20458;-56
2021/12/21 01:01:07;;;;;;;38.78;14.80;;;;;;;-3.11;98.67;102681.53;4994527;28;20026;-56
2021/12/21 01:03:42;;;;;;;43.50;16.17;;;;;;;-3.15;98.71;102686.22;4993819;28;20050;-56
2021/12/21 01:06:15;;;;;;;39.28;14.80;;;;;;;-3.19;98.06;102685.69;4994417;28;20370;-56
2021/12/21 01:10:06;;;;;;;46.42;15.75;;;;;;;-3.23;98.03;102686.06;4994451;28;20053;-56
2021/12/21 01:11:43;;;;;;;38.30;15.73;;;;;;;-3.30;98.35;102687.00;4980329;28;20363;-56
2021/12/21 01:14:46;;;;;;;41.38;16.08;;;;;;;-3.32;98.91;102685.91;4994277;28;20030;-56
2021/12/21 01:19:36;;;;;;;42.05;15.98;;;;;;;-3.31;99.44;102696.16;4993482;28;20034;-56
2021/12/21 01:25:13;;;;;;;37.38;15.05;;;;;;;-3.31;99.60;102685.19;4993258;28;20042;-56
2021/12/21 01:35:45;;;;;;;33.45;15.85;;;;;;;-3.39;98.99;102675.88;4994137;28;20031;-56
2021/12/21 01:51:06;;;;;;;41.22;15.82;;;;;;;-3.49;98.32;102668.84;4993993;28;20521;-57
2021/12/21 01:53:31;;;;;;;40.50;16.92;;;;;;;-3.53;98.25;102670.09;4992918;28;20023;-57
2021/12/21 01:55:57;;;;;;;40.80;15.38;;;;;;;-3.54;98.03;102669.94;4993382;28;20037;-57
2021/12/21 01:58:23;;;;;;;52.45;16.95;;;;;;;-3.54;98.39;102665.81;4993826;28;20026;-57
2021/12/21 02:00:49;;;;;;;42.40;15.55;;;;;;;-3.53;98.38;102671.75;4992653;28;20478;-57
2021/12/21 02:03:14;;;;;;;48.28;16.77;;;;;;;-3.57;97.71;102665.44;4993297;28;20470;-56
2021/12/21 02:05:40;;;;;;;38.72;15.07;;;;;;;-3.58;97.96;102662.75;4993442;28;20470;-57
2021/12/21 02:08:05;;;;;;;44.33;17.42;;;;;;;-3.61;97.78;102663.28;4992593;28;20116;-57
2021/12/21 02:10:31;;;;;;;40.25;16.00;;;;;;;-3.64;97.87;102656.28;4993386;28;20030;-57
2021/12/21 02:12:56;;;;;;;38.83;15.18;;;;;;;-3.68;98.03;102659.16;4993378;28;20030;-56
2021/12/21 02:15:24;;;;;;;40.65;15.82;;;;;;;-3.71;97.72;102655.38;4992739;28;20023;-56
2021/12/21 02:20:40;;;;;;;45.53;15.68;;;;;;;-3.69;98.73;102647.28;4993628;28;19913;-56
2021/12/21 02:23:10;;;;;;;40.45;14.05;;;;;;;-3.69;98.58;102643.88;4993190;28;20030;-57
2021/12/21 02:25:58;;;;;;;41.55;15.82;;;;;;;-3.73;98.66;102641.69;4993424;28;20054;-57
2021/12/21 02:30:54;;;;;;;35.95;15.25;;;;;;;-3.78;98.03;102645.31;4993136;28;20027;-57
2021/12/21 02:33:22;;;;;;;36.67;15.68;;;;;;;-3.79;98.11;102657.03;4993280;28;20413;-56
2021/12/21 02:35:48;;;;;;;37.63;14.82;;;;;;;-3.80;97.63;102660.25;4992353;28;20030;-56
2021/12/21 02:38:13;;;;;;;44.67;14.90;;;;;;;-3.83;97.37;102660.78;4993377;28;20023;-56
2021/12/21 02:40:39;;;;;;;39.67;15.23;;;;;;;-3.83;97.57;102660.78;4996521;28;20458;-56
2021/12/21 02:43:05;;;;;;;42.28;15.95;;;;;;;-3.83;97.77;102659.91;4996050;28;20049;-56
2021/12/21 02:45:30;;;;;;;39.80;15.45;;;;;;;-3.81;98.09;102656.84;4997067;28;20023;-56
2021/12/21 02:47:56;;;;;;;37.08;15.77;;;;;;;-3.80;98.24;102650.16;4996605;28;20489;-56
2021/12/21 02:50:21;;;;;;;37.70;14.88;;;;;;;-3.83;97.99;102644.78;4996406;28;20026;-56
2021/12/21 02:52:47;;;;;;;38.90;15.45;;;;;;;-3.83;98.67;102645.69;4996612;28;20378;-57
2021/12/21 02:55:13;;;;;;;45.65;17.23;;;;;;;-3.81;98.89;102640.81;4997021;28;20038;-56
2021/12/21 02:57:39;;;;;;;47.08;16.25;;;;;;;-3.84;98.37;102638.84;4995934;28;20034;-56
2021/12/21 03:00:06;;;;;;;40.00;15.18;;;;;;;-3.85;98.22;102646.22;4996723;28;20030;-57
2021/12/21 03:02:32;;;;;;;43.90;16.05;;;;;;;-3.87;97.88;102642.66;4996597;28;20065;-57
2021/12/21 03:04:57;;;;;;;42.63;16.42;;;;;;;-3.91;98.31;102641.38;4995445;28;20125;-56
2021/12/21 03:10:00;;;;;;;45.25;16.10;;;;;;;-3.99;98.15;102632.94;4996219;28;20045;-56
2021/12/21 03:13:50;;;;;;;;;;;;;;;-3.95;97.92;102638.31;4997121;28;20041;-57
2021/12/21 03:15:11;;;;;;;41.67;15.73;;;;;;;-3.97;98.30;102635.63;4996459;28;19917;-57
2021/12/21 03:17:37;;;;;;;42.60;16.33;;;;;;;-4.00;98.00;102635.28;4995630;28;20030;-57
2021/12/21 03:20:02;;;;;;;46.45;16.45;;;;;;;-4.00;98.75;102633.63;4996225;28;20034;-56
2021/12/21 03:22:28;;;;;;;49.53;17.17;;;;;;;-3.99;98.58;102630.41;4996351;28;20386;-57
2021/12/21 03:24:53;;;;;;;44.95;15.68;;;;;;;-3.98;99.17;102634.72;4995307;28;20037;-57
2021/12/21 03:27:18;;;;;;;41.03;16.95;;;;;;;-4.01;98.63;102631.84;4996215;28;20030;-57
2021/12/21 03:29:43;;;;;;;40.60;16.13;;;;;;;-4.03;98.15;102625.75;4995824;28;20108;-57
2021/12/21 03:32:09;;;;;;;46.72;17.73;;;;;;;-4.03;98.27;102620.69;4995581;28;20027;-57
2021/12/21 03:34:34;;;;;;;46.65;17.65;;;;;;;-4.04;98.25;102633.09;4996173;28;20478;-56
2021/12/21 03:36:59;;;;;;;46.05;16.73;;;;;;;-4.07;97.60;102626.06;4996086;28;20030;-57
2021/12/21 03:39:25;;;;;;;43.45;17.08;;;;;;;-4.09;97.38;102630.06;4995282;28;20026;-57
2021/12/21 03:41:56;;;;;;;42.15;15.48;;;;;;;-4.11;97.52;102626.44;4995713;28;20026;-56
2021/12/21 03:44:22;;;;;;;54.40;17.63;;;;;;;-4.12;98.01;102624.63;4995900;28;20030;-57
2021/12/21 03:46:54;;;;;;;40.45;15.30;;;;;;;-4.13;97.78;102627.91;4995113;28;20057;-56
2021/12/21 03:52:05;;;;;;;42.45;17.33;;;;;;;-4.12;98.23;102629.66;4995695;28;20042;-56
2021/12/21 03:54:30;;;;;;;47.50;16.63;;;;;;;-4.15;98.15;102624.28;4995788;28;20072;-56
2021/12/21 03:56:55;;;;;;;40.55;17.15;;;;;;;-4.17;97.33;102620.69;4995384;28;20061;-56
2021/12/21 03:59:21;;;;;;;44.45;18.13;;;;;;;-4.19;97.56;102627.19;4995034;28;20037;-56
2021/12/21 04:01:47;;;;;;;46.20;18.00;;;;;;;-4.20;97.96;102621.22;4995550;28;20034;-57
2021/12/21 04:04:13;;;;;;;48.53;18.88;;;;;;;-4.21;97.40;102626.09;4995409;28;20051;-56
2021/12/21 04:06:39;;;;;;;43.53;17.75;;;;;;;-4.20;98.36;102620.34;4994619;28;20089;-57
2021/12/21 04:09:06;;;;;;;45.97;18.65;;;;;;;-4.18;98.70;102618.91;4995426;28;20053;-57
2021/12/21 04:11:32;;;;;;;55.17;18.65;;;;;;;-4.17;98.87;102623.19;4995348;28;20030;-57
2021/12/21 04:13:58;;;;;;;42.33;17.38;;;;;;;-4.19;98.31;102617.09;4994276;28;20549;-57
2021/12/21 04:16:24;;;;;;;47.55;18.17;;;;;;;-4.19;98.24;102617.09;4995270;28;20360;-56
2021/12/21 04:18:49;;;;;;;48.10;17.63;;;;;;;-4.19;98.31;102617.09;4995042;28;20492;-57
2021/12/21 04:21:15;;;;;;;47.08;16.60;;;;;;;-4.20;98.33;102613.66;4994522;28;20121;-56
2021/12/21 04:23:41;;;;;;;46.50;18.80;;;;;;;-4.22;97.97;102614.22;4994902;28;20108;-57
2021/12/21 04:26:08;;;;;;;41.88;17.35;;;;;;;-4.25;97.64;102622.31;4995184;28;20113;-56
2021/12/21 04:28:34;;;;;;;50.17;17.33;;;;;;;-4.24;98.32;102618.19;4994511;28;20030;-57
2021/12/21 04:30:59;;;;;;;44.80;17.50;;;;;;;-4.23;98.39;102620.00;4995154;28;20274;-56
2021/12/21 04:33:24;;;;;;;45.65;18.48;;;;;;;-4.23;99.05;102617.47;4995131;28;20022;-57
2021/12/21 04:35:50;;;;;;;46.50;18.50;;;;;;;-4.23;99.10;102620.00;4993843;28;20026;-57
2021/12/21 04:38:29;;;;;;;55.15;18.35;;;;;;;-4.23;99.38;102620.00;4994940;28;20031;-57
2021/12/21 04:41:02;;;;;;;47.80;17.88;;;;;;;-4.27;97.77;102612.75;4994832;28;20034;-56
2021/12/21 04:43:27;;;;;;;47.95;17.35;;;;;;;-4.31;97.17;102619.97;4994083;28;20038;-56
2021/12/21 04:45:52;;;;;;;47.90;17.23;;;;;;;-4.34;97.07;102613.66;4994532;28;20034;-57
2021/12/21 04:48:18;;;;;;;45.50;18.35;;;;;;;-4.35;97.50;102607.75;4994094;28;20026;-56
2021/12/21 04:50:44;;;;;;;48.50;17.65;;;;;;;-4.36;97.67;102618.53;4994373;28;20417;-56
2021/12/21 04:53:10;;;;;;;48.90;18.42;;;;;;;-4.34;98.08;102616.19;4994673;28;20027;-57
2021/12/21 04:55:35;;;;;;;51.30;18.70;;;;;;;-4.36;98.56;102605.06;4993832;28;20041;-56
2021/12/21 04:58:01;;;;;;;45.72;17.88;;;;;;;-4.37;98.25;102604.13;4994599;28;20037;-57
2021/12/21 05:00:27;;;;;;;42.85;17.75;;;;;;;-4.39;98.17;102610.63;4994494;28;20466;-56
2021/12/21 05:02:52;;;;;;;50.10;19.17;;;;;;;-4.40;97.76;102613.84;4992779;28;20089;-57
2021/12/21 05:05:17;;;;;;;49.63;19.25;;;;;;;-4.39;98.20;102602.16;4994170;28;20052;-56
2021/12/21 05:07:47;;;;;;;43.47;17.73;;;;;;;-4.42;98.09;102601.81;4994009;28;20050;-57
2021/12/21 05:10:13;;;;;;;44.97;18.80;;;;;;;-4.46;97.90;102601.44;4993803;28;20057;-56
2021/12/21 05:12:39;;;;;;;42.15;15.77;;;;;;;-4.47;97.41;102606.28;4994227;28;20084;-56
2021/12/21 05:15:06;;;;;;;46.90;16.55;;;;;;;-4.51;97.46;102596.59;4994285;28;20022;-56
2021/12/21 05:17:31;;;;;;;39.10;17.80;;;;;;;-4.51;96.89;102607.53;4993482;28;20109;-56
2021/12/21 05:19:57;;;;;;;50.92;17.60;;;;;;;-4.53;97.40;102610.59;4993746;28;20114;-56
2021/12/21 05:22:23;;;;;;;49.17;17.48;;;;;;;-4.55;96.93;102607.00;4994293;28;20113;-57
2021/12/21 05:24:50;;;;;;;44.40;17.90;;;;;;;-4.55;97.27;102612.03;4993269;28;20109;-57
2021/12/21 05:27:16;;;;;;;53.40;17.52;;;;;;;-4.56;97.10;102613.63;4994198;28;20027;-57
2021/12/21 05:29:41;;;;;;;46.72;18.38;;;;;;;-4.58;97.52;102614.19;4993856;28;20069;-56
2021/12/21 05:32:07;;;;;;;42.20;16.73;;;;;;;-4.56;97.69;102617.78;4993228;28;20427;-57
2021/12/21 05:34:32;;;;;;;43.45;17.98;;;;;;;-4.57;97.80;102613.47;4993794;28;20033;-56
2021/12/21 05:36:58;;;;;;;45.55;17.15;;;;;;;-4.59;97.23;102613.28;4993525;28;20030;-56
2021/12/21 05:39:26;;;;;;;46.78;18.25;;;;;;;-4.59;96.82;102619.94;4993284;28;20101;-56
2021/12/21 05:41:54;;;;;;;43.65;17.83;;;;;;;-4.62;97.52;102617.97;4993597;28;20415;-57
2021/12/21 05:44:21;;;;;;;;;;;;;;;-4.58;97.18;102610.06;4994276;28;20030;-57
2021/12/21 05:46:48;;;;;;;47.77;18.73;;;;;;;-4.58;97.53;102611.66;4992811;28;19918;-57
2021/12/21 05:49:13;;;;;;;41.65;17.15;;;;;;;-4.60;98.35;102614.00;4993646;28;20280;-57
2021/12/21 05:51:39;;;;;;;43.08;18.17;;;;;;;-4.58;98.06;102619.22;4992926;28;20063;-57
2021/12/21 05:54:04;;;;;;;44.95;17.67;;;;;;;-4.61;98.22;102618.84;4993770;28;20019;-57
2021/12/21 05:56:30;;;;;;;46.70;19.05;;;;;;;-4.64;97.78;102622.78;4993687;28;20037;-57
2021/12/21 05:58:55;;;;;;;44.10;18.55;;;;;;;-4.66;97.37;102613.25;4992622;28;20026;-57
2021/12/21 06:01:20;;;;;;;48.55;18.75;;;;;;;-4.67;97.98;102614.91;4993553;28;20030;-57
2021/12/21 06:03:46;;;;;;;45.90;19.63;;;;;;;-4.68;98.08;102612.19;4992995;28;20058;-57
2021/12/21 06:06:14;;;;;;;50.80;19.92;;;;;;;-4.66;98.18;102611.66;4992933;28;20076;-57
2021/12/21 06:08:41;;;;;;;49.35;18.70;;;;;;;-4.68;98.46;102610.56;4993509;28;20097;-57
2021/12/21 06:11:08;;;;;;;48.07;17.30;;;;;;;-4.70;98.41;102608.59;4993651;28;20027;-57
2021/12/21 06:16:28;;;;;;;47.33;17.55;;;;;;;-4.69;98.59;102616.31;4997816;28;20060;-57
2021/12/21 06:26:53;;;;;;;49.00;18.83;;;;;;;-4.69;98.40;102615.44;4996532;28;20041;-57
2021/12/21 06:29:19;;;;;;;49.38;20.02;;;;;;;-4.68;98.94;102617.22;4997255;28;20026;-56
2021/12/21 06:31:44;;;;;;;57.85;19.83;;;;;;;-4.65;99.59;102620.09;4997214;28;20134;-57
2021/12/21 06:34:10;;;;;;;58.03;20.90;;;;;;;-4.63;99.17;102611.13;4996629;28;20038;-57
2021/12/21 06:36:35;;;;;;;48.15;19.58;;;;;;;-4.64;99.53;102602.66;4996974;28;20019;-57
2021/12/21 06:39:01;;;;;;;48.63;20.23;;;;;;;-4.67;98.67;102607.34;4997155;28;20034;-57
2021/12/21 06:41:26;;;;;;;48.45;18.98;;;;;;;-4.68;98.52;102602.13;4996239;28;20459;-57
2021/12/21 06:43:52;;;;;;;50.85;20.40;;;;;;;-4.72;98.70;102607.53;4996904;28;20118;-57
2021/12/21 06:51:38;;;;;;;50.95;19.88;;;;;;;-4.74;98.75;102612.34;4997343;28;20120;-57
2021/12/21 06:54:04;;;;;;;50.30;18.30;;;;;;;-4.74;98.31;102622.41;4996862;28;20033;-57
2021/12/21 06:56:29;;;;;;;48.28;20.65;;;;;;;-4.76;98.16;102617.91;4996002;28;20030;-57
2021/12/21 06:58:55;;;;;;;49.95;18.75;;;;;;;-4.78;98.31;102617.75;4996607;28;20026;-57
2021/12/21 07:01:22;;;;;;;44.83;19.55;;;;;;;-4.77;98.60;102609.47;4996834;28;20033;-56
2021/12/21 07:03:47;;;;;;;46.90;18.15;;;;;;;-4.77;98.35;102616.13;4995420;28;20054;-57
2021/12/21 07:06:16;;;;;;;50.70;20.20;;;;;;;-4.81;98.04;102614.88;4996427;28;20022;-57
2021/12/21 07:08:56;;;;;;;46.83;19.30;;;;;;;-4.82;98.19;102618.97;4996728;28;20030;-57
2021/12/21 07:19:28;;;;;;;48.88;19.20;;;;;;;-4.88;98.21;102629.91;4996637;28;20041;-57
2021/12/21 07:21:54;;;;;;;44.90;19.00;;;;;;;-4.90;97.91;102624.72;4996255;28;20034;-57
2021/12/21 07:24:19;;;;;;;46.05;20.08;;;;;;;-4.90;98.46;102631.38;4995272;28;20022;-56
2021/12/21 07:26:44;;;;;;;47.33;19.67;;;;;;;-4.93;98.12;102631.00;4995521;28;20451;-57
2021/12/21 07:29:10;;;;;;;55.72;20.42;;;;;;;-4.97;97.11;102633.16;4996170;28;20105;-57
2021/12/21 07:31:36;;;;;;;50.03;18.10;;;;;;;-4.97;97.15;102635.66;4995131;28;20450;-57
2021/12/21 07:34:02;;;;;;;50.35;20.40;;;;;;;-4.99;97.06;102634.56;4996150;28;20056;-57
2021/12/21 07:36:30;;;;;;;46.00;20.70;;;;;;;-5.01;96.60;102625.94;4995967;28;20474;-56
2021/12/21 07:38:55;;;;;;;;;;;;;;;-4.96;97.35;102632.44;4995479;28;20061;-56
2021/12/21 07:41:20;;;;;;;42.97;18.58;;;;;;;-4.99;97.42;102634.56;4996075;28;19913;-56
2021/12/21 07:43:46;;;;;;;52.17;19.42;;;;;;;-5.00;97.62;102635.28;4995628;28;20053;-56
2021/12/21 07:46:11;;;;;;;45.95;19.35;;;;;;;-5.00;97.58;102639.41;4995298;28;20435;-56
2021/12/21 07:48:37;;;;;;;39.97;18.90;;;;;;;-5.01;98.14;102641.03;4995610;28;20077;-57
2021/12/21 07:51:03;;;;;;;48.47;20.17;;;;;;;-5.01;98.41;102651.09;4995863;28;20049;-57
2021/12/21 07:53:28;;;;;;;47.65;18.95;;;;;;;-4.99;97.83;102649.66;4994969;28;20401;-56
2021/12/21 07:55:53;;;;;;;54.90;19.85;;;;;;;-5.01;97.67;102651.09;4995331;28;20041;-56
2021/12/21 07:58:19;;;;;;;48.15;19.75;;;;;;;-5.02;97.63;102649.28;4994829;28;20026;-56
2021/12/21 08:00:44;;;;;;;47.88;20.38;;;;;;;-5.02;97.64;102649.28;4995508;28;20053;-56
2021/12/21 08:03:13;;;;;;;49.50;20.20;;;;;;;-5.01;97.89;102646.06;4995324;28;20026;-56
2021/12/21 08:05:38;;;;;;;50.08;18.17;;;;;;;-5.00;98.76;102652.88;4994824;28;20031;-56
2021/12/21 08:08:11;;;;;;;46.05;19.73;;;;;;;-4.99;98.22;102648.75;4995248;28;20026;-56
2021/12/21 08:10:49;;;;;;;51.35;21.40;;;;;;;-4.97;99.06;102642.28;4995315;28;20052;-56
2021/12/21 08:13:15;;;;;;;54.95;22.08;;;;;;;-4.93;99.08;102644.47;4994738;28;20596;-56
2021/12/21 08:15:40;;;;;;;49.08;19.42;;;;;;;-4.90;99.79;102654.91;4995338;28;20106;-56
2021/12/21 08:18:06;;;;;;;53.47;21.33;;;;;;;-4.87;99.59;102645.19;4995327;28;20030;-56
2021/12/21 08:20:31;;;;;;;47.95;19.90;;;;;;;-4.86;99.12;102647.00;4994555;28;20386;-57
2021/12/21 08:22:57;;;;;;;51.65;20.55;;;;;;;-4.84;99.12;102644.66;4994968;28;20113;-56
2021/12/21 08:25:25;;;;;;;47.78;21.40;;;;;;;-4.83;99.43;102651.50;4995108;28;20386;-56
2021/12/21 08:27:57;;;;;;;49.65;20.83;;;;;;;-4.79;99.04;102648.63;4994339;28;20037;-56
2021/12/21 08:30:24;;;;;;;49.15;21.30;;;;;;;-4.75;99.44;102650.81;4994877;28;20160;-56
2021/12/21 08:32:49;;;;;;;59.03;25.27;;;;;;;-4.73;100.00;102651.00;4994603;28;20486;-56
2021/12/21 08:35:15;;;;;;;86.15;38.05;;;;;;;-4.71;99.97;102644.53;4994203;28;20117;-56
2021/12/21 08:37:48;;;;;;;67.60;28.48;;;;;;;-4.69;99.18;102648.13;4994000;28;20477;-57
2021/12/21 08:40:14;;;;;;;55.70;27.48;;;;;;;-4.63;100.00;102651.38;4994824;28;20405;-56
2021/12/21 08:42:40;;;;;;;58.10;26.35;;;;;;;-4.59;100.00;102656.06;4994008;28;20034;-57
2021/12/21 08:45:06;;;;;;;52.60;23.80;;;;;;;-4.55;100.00;102649.78;4994862;28;20022;-56
2021/12/21 08:47:35;;;;;;;68.57;25.45;;;;;;;-4.50;100.00;102658.78;4994135;28;20050;-56
2021/12/21 08:50:03;;;;;;;54.47;25.13;;;;;;;-4.47;100.00;102655.03;4994673;28;20092;-56
2021/12/21 08:52:28;;;;;;;57.78;25.48;;;;;;;-4.41;100.00;102654.84;4994471;28;20463;-56
2021/12/21 08:54:53;;;;;;;60.58;25.15;;;;;;;-4.38;100.00;102655.19;4993817;28;20046;-57
2021/12/21 08:57:19;;;;;;;65.20;25.02;;;;;;;-4.34;100.00;102656.47;4994806;28;20425;-56
2021/12/21 08:59:44;;;;;;;62.42;24.08;;;;;;;-4.29;100.00;102662.94;4994324;28;20042;-57
2021/12/21 09:02:09;;;;;;;53.67;25.23;;;;;;;-4.26;100.00;102662.41;4993695;28;20421;-56
2021/12/21 09:04:35;;;;;;;57.38;25.63;;;;;;;-4.24;100.00;102658.47;4993986;28;20054;-57
2021/12/21 09:07:03;;;;;;;69.05;25.83;;;;;;;-4.23;100.00;102661.16;4994191;28;20537;-56
2021/12/21 09:09:29;;;;;;;56.03;24.70;;;;;;;-4.20;100.00;102665.66;4993795;28;20029;-56
2021/12/21 09:11:54;;;;;;;65.45;26.33;;;;;;;-4.16;100.00;102662.78;4994088;28;20026;-56
2021/12/21 09:14:21;;;;;;;64.97;25.52;;;;;;;-4.09;100.00;102670.34;4994270;28;20429;-56
2021/12/21 09:16:47;;;;;;;62.30;24.90;;;;;;;-4.03;100.00;102662.59;4993190;28;20034;-56
2021/12/21 09:19:13;;;;;;;65.22;25.00;;;;;;;-3.95;100.00;102668.53;4994099;28;20057;-56
2021/12/21 09:21:38;;;;;;;63.53;26.17;;;;;;;-3.90;100.00;102664.94;4993936;28;20015;-56
2021/12/21 09:24:04;;;;;;;63.33;25.17;;;;;;;-3.83;100.00;102662.44;4993104;28;20482;-56
2021/12/21 09:26:30;;;;;;;56.20;24.70;;;;;;;-3.76;100.00;102671.59;4994244;28;20146;-56
2021/12/21 09:28:56;;;;;;;71.47;27.30;;;;;;;-3.70;100.00;102668.16;4993734;28;20474;-57
2021/12/21 09:31:22;;;;;;;69.38;25.58;;;;;;;-3.62;100.00;102665.66;4993370;28;20037;-56
2021/12/21 09:33:47;;;;;;;63.40;25.60;;;;;;;-3.53;100.00;102661.66;4993732;28;20030;-56
2021/12/21 09:36:12;;;;;;;68.30;26.25;;;;;;;-3.43;100.00;102659.47;4993855;28;20033;-56
2021/12/21 09:38:38;;;;;;;64.10;26.35;;;;;;;-3.34;100.00;102652.97;4992983;28;20049;-56
2021/12/21 09:41:04;;;;;;;57.25;25.60;;;;;;;-3.26;100.00;102652.97;4993723;28;20113;-56
2021/12/21 09:43:29;;;;;;;59.83;26.65;;;;;;;-3.19;100.00;102655.44;4993838;28;20060;-56
2021/12/21 09:45:55;;;;;;;65.30;26.40;;;;;;;-3.11;100.00;102647.13;4992863;28;20521;-57
2021/12/21 09:48:20;;;;;;;64.32;25.92;;;;;;;-3.03;100.00;102646.38;4993737;28;20022;-57
2021/12/21 09:50:45;;;;;;;64.43;25.73;;;;;;;-2.96;100.00;102649.59;4992768;28;20026;-57
2021/12/21 09:53:10;;;;;;;61.17;23.33;;;;;;;-2.89;100.00;102645.41;4993579;28;20034;-57
2021/12/21 09:55:36;;;;;;;65.57;26.08;;;;;;;-2.78;100.00;102645.72;4993605;28;20022;-57
2021/12/21 09:58:01;;;;;;;58.38;26.33;;;;;;;-2.66;100.00;102648.00;4992832;28;20076;-57
2021/12/21 10:00:32;;;;;;;56.42;26.52;;;;;;;-2.48;100.00;102648.22;4993839;28;20096;-57
2021/12/21 10:03:03;;;;;;;53.88;25.17;;;;;;;-2.28;100.00;102645.41;4993188;28;20106;-57
2021/12/21 10:05:32;;;;;;;64.47;28.08;;;;;;;-2.02;100.00;102643.19;4992699;28;20038;-57
2021/12/21 10:08:07;;;;;;;53.42;26.10;;;;;;;-1.70;100.00;102643.28;4993399;28;20553;-58
2021/12/21 10:10:36;;;;;;;55.75;31.77;;;;;;;-1.26;99.35;102642.81;4993599;28;20035;-57
2021/12/21 10:13:20;;;;;;;49.67;22.63;;;;;;;-0.92;97.95;102636.25;4992629;28;20042;-58
2021/12/21 10:15:48;;;;;;;56.17;31.48;;;;;;;-0.90;96.32;102643.25;4993216;28;20031;-58
2021/12/21 10:18:25;;;;;;;50.33;24.15;;;;;;;-0.51;94.74;102640.53;4993400;28;20057;-58
2021/12/21 10:20:52;;;;;;;53.88;29.92;;;;;;;-0.55;93.67;102640.97;4992526;28;20030;-58
2021/12/21 10:23:21;;;;;;;49.25;28.08;;;;;;;-0.20;91.73;102637.72;4993450;28;20113;-57
2021/12/21 10:25:50;;;;;;;47.45;28.63;;;;;;;0.14;90.57;102625.94;4993329;28;20103;-58
2021/12/21 10:28:32;;;;;;;47.33;27.00;;;;;;;0.56;90.47;102615.72;4992498;28;20462;-57
2021/12/21 10:31:00;;;;;;;43.22;25.27;;;;;;;0.63;89.45;102613.06;4993228;28;20117;-57
2021/12/21 10:33:26;;;;;;;48.28;25.15;;;;;;;0.67;87.59;102614.22;4992619;28;20049;-57
2021/12/21 10:35:54;;;;;;;44.28;24.42;;;;;;;0.89;87.82;102617.25;4993108;28;20018;-57
2021/12/21 10:38:43;;;;;;;;;;;;;;;1.43;92.27;102621.50;4993681;28;20105;-57
2021/12/21 10:41:16;;;;;;;44.40;23.35;;;;;;;0.93;87.88;102616.78;4992392;28;19920;-57
2021/12/21 10:43:41;;;;;;;45.15;23.55;;;;;;;1.08;86.89;102614.81;4992864;28;20388;-57
2021/12/21 10:46:08;;;;;;;36.70;22.38;;;;;;;1.22;85.30;102616.16;4993098;28;20082;-57
2021/12/21 10:48:36;;;;;;;40.60;22.17;;;;;;;1.34;84.72;102610.47;4992838;28;20031;-58
2021/12/21 10:51:03;;;;;;;40.03;22.33;;;;;;;1.34;84.79;102621.50;4993107;28;20061;-57
2021/12/21 10:53:29;;;;;;;42.50;23.35;;;;;;;1.37;83.54;102615.81;4993056;28;20031;-58
2021/12/21 10:56:07;;;;;;;40.05;22.17;;;;;;;1.45;83.56;102607.31;4992123;28;20037;-57
2021/12/21 10:58:36;;;;;;;46.97;23.80;;;;;;;1.66;82.85;102612.63;4993123;28;20097;-58
2021/12/21 11:01:05;;;;;;;40.55;23.13;;;;;;;1.67;83.47;102615.31;4995003;28;20030;-58
2021/12/21 11:03:36;;;;;;;39.33;22.73;;;;;;;1.86;82.71;102623.03;4996422;28;20050;-58
2021/12/21 11:06:17;;;;;;;38.47;22.08;;;;;;;2.08;82.55;102615.72;4996503;28;20131;-58
2021/12/21 11:08:45;;;;;;;35.95;19.52;;;;;;;2.12;80.36;102606.75;4995783;28;20037;-58
2021/12/21 11:11:33;;;;;;;35.80;19.35;;;;;;;2.42;81.11;102598.47;4996631;28;20037;-58
2021/12/21 11:14:00;;;;;;;34.13;18.00;;;;;;;2.66;77.97;102603.09;4996256;28;20026;-58
2021/12/21 11:16:39;;;;;;;34.08;17.90;;;;;;;2.80;77.93;102600.13;4995612;28;20109;-58
2021/12/21 11:19:05;;;;;;;37.75;18.83;;;;;;;2.89;76.86;102606.06;4996493;28;20038;-58
2021/12/21 11:21:31;;;;;;;31.95;18.25;;;;;;;3.05;76.03;102589.59;4996395;28;20446;-58
2021/12/21 11:24:00;;;;;;;37.40;17.80;;;;;;;3.31;74.88;102593.53;4995308;28;20072;-58
2021/12/21 11:26:26;;;;;;;34.83;16.75;;;;;;;3.66;73.19;102586.34;4996273;28;20052;-58
2021/12/21 11:28:55;;;;;;;32.22;16.67;;;;;;;3.94;71.34;102574.28;4996028;28;20073;-58
2021/12/21 11:31:22;;;;;;;30.70;15.63;;;;;;;4.38;69.91;102570.25;4995613;28;20026;-58
2021/12/21 11:33:49;;;;;;;34.65;17.08;;;;;;;4.92;67.97;102556.72;4996116;28;20030;-58
2021/12/21 11:39:02;;;;;;;28.75;14.63;;;;;;;5.42;65.51;102541.00;4996348;28;20293;-58
2021/12/21 11:41:28;;;;;;;29.65;14.82;;;;;;;5.65;65.42;102544.47;4995976;28;20122;-59
2021/12/21 11:44:02;;;;;;;32.72;15.27;;;;;;;5.58;64.08;102538.00;4995047;28;20034;-58
2021/12/21 11:46:39;;;;;;;31.85;16.20;;;;;;;5.91;65.24;102546.47;4996037;28;20053;-58
2021/12/21 11:49:54;;;;;;;32.88;14.80;;;;;;;6.29;66.96;102547.59;4995845;28;20034;-58
2021/12/21 11:52:22;;;;;;;25.60;15.23;;;;;;;5.86;60.12;102545.22;4980836;28;20031;-58
2021/12/21 11:54:53;;;;;;;29.70;14.93;;;;;;;5.74;63.50;102545.19;4995601;28;20109;-58
2021/12/21 11:57:35;;;;;;;30.08;14.73;;;;;;;5.39;63.14;102551.03;4995474;28;20049;-58
2021/12/21 12:00:13;;;;;;;24.85;15.18;;;;;;;5.58;64.30;102543.13;4995475;28;20022;-58
2021/12/21 12:02:39;;;;;;;29.98;16.63;;;;;;;5.01;64.47;102547.22;4995594;28;20039;-58
2021/12/21 12:05:34;;;;;;;29.25;16.88;;;;;;;5.04;69.73;102546.59;4994546;28;20509;-58
2021/12/21 12:08:05;;;;;;;33.75;18.25;;;;;;;4.41;66.60;102542.38;4986666;28;20394;-58
2021/12/21 12:10:32;;;;;;;30.25;17.70;;;;;;;4.37;66.48;102548.03;4995348;28;20098;-58
2021/12/21 12:13:12;;;;;;;28.98;17.25;;;;;;;4.23;68.98;102535.00;4993302;28;20030;-58
2021/12/21 12:16:13;;;;;;;32.28;17.85;;;;;;;4.47;70.48;102530.13;4995408;28;20022;-58
2021/12/21 12:18:47;;;;;;;30.20;14.90;;;;;;;4.24;68.02;102529.13;4986777;28;20069;-58
2021/12/21 12:21:19;;;;;;;32.50;15.35;;;;;;;3.95;68.29;102527.63;4995554;28;20077;-58
2021/12/21 12:23:49;;;;;;;32.78;16.02;;;;;;;3.85;67.73;102527.63;4995048;28;20033;-58